createdAt,value
2022-11-09T00:00:38.204Z,1.70
2022-11-09T00:01:40.340Z,1.47
2022-11-09T00:02:44.071Z,1.80
2022-11-09T00:03:46.500Z,1.60
2022-11-09T00:04:48.089Z,1.67
2022-11-09T00:06:00.273Z,1.83
2022-11-09T00:07:01.925Z,1.67
2022-11-09T00:08:11.066Z,1.90
2022-11-09T00:09:12.672Z,1.90
2022-11-09T00:10:14.398Z,1.73
2022-11-09T00:11:16.619Z,1.77
2022-11-09T00:12:18.228Z,1.73
2022-11-09T00:13:20.111Z,1.40
2022-11-09T00:14:22.073Z,1.60
2022-11-09T00:15:23.660Z,1.50
2022-11-09T00:16:25.365Z,1.60
2022-11-09T00:17:27.762Z,2.23
2022-11-09T00:18:30.089Z,1.52
2022-11-09T00:19:31.683Z,1.53
2022-11-09T00:20:33.271Z,1.67
2022-11-09T00:21:34.997Z,1.50
2022-11-09T00:22:36.607Z,1.90
2022-11-09T00:23:38.443Z,1.90
2022-11-09T00:24:40.110Z,2.00
2022-11-09T00:25:41.734Z,1.70
2022-11-09T00:26:43.676Z,1.60
2022-11-09T00:27:45.291Z,1.30
2022-11-09T00:28:47.484Z,1.85
2022-11-09T00:29:49.065Z,1.40
2022-11-09T00:30:50.703Z,1.63
2022-11-09T00:31:52.380Z,1.43
2022-11-09T00:32:55.055Z,1.90
2022-11-09T00:33:57.645Z,1.67
2022-11-09T00:34:59.241Z,1.70
2022-11-09T00:36:07.717Z,1.50
2022-11-09T00:37:09.340Z,2.07
2022-11-09T00:38:10.990Z,1.37
2022-11-09T00:39:12.763Z,1.75
2022-11-09T00:40:14.453Z,1.20
2022-11-09T00:41:16.351Z,1.70
2022-11-09T00:42:17.981Z,1.40
2022-11-09T00:43:20.055Z,1.90
2022-11-09T00:44:21.904Z,1.80
2022-11-09T00:45:23.503Z,1.77
2022-11-09T00:46:25.099Z,1.53
2022-11-09T00:47:27.130Z,1.73
2022-11-09T00:48:28.740Z,1.63
2022-11-09T00:49:30.348Z,1.55
2022-11-09T00:50:31.977Z,1.60
2022-11-09T00:51:33.591Z,1.60
2022-11-09T00:52:35.230Z,1.80
2022-11-09T00:53:37.008Z,1.57
2022-11-09T00:54:38.607Z,1.80
2022-11-09T00:55:40.402Z,1.88
2022-11-09T00:56:41.993Z,1.90
2022-11-09T00:57:43.639Z,1.45
2022-11-09T00:58:45.285Z,1.37
2022-11-09T00:59:46.999Z,1.77
2022-11-09T01:00:48.872Z,1.65
2022-11-09T01:01:50.555Z,1.83
2022-11-09T01:02:52.653Z,1.40
2022-11-09T01:03:54.302Z,1.40
2022-11-09T01:04:56.041Z,1.40
2022-11-09T01:05:59.775Z,1.50
2022-11-09T01:07:01.607Z,1.40
2022-11-09T01:08:03.249Z,1.38
2022-11-09T01:09:05.192Z,1.63
2022-11-09T01:10:07.816Z,1.80
2022-11-09T01:11:10.520Z,1.90
2022-11-09T01:12:12.124Z,1.80
2022-11-09T01:13:16.011Z,1.60
2022-11-09T01:14:17.691Z,1.70
2022-11-09T01:15:19.290Z,1.40
2022-11-09T01:16:23.167Z,1.52
2022-11-09T01:17:25.140Z,1.50
2022-11-09T01:18:26.767Z,1.63
2022-11-09T01:19:28.756Z,1.95
2022-11-09T01:20:30.334Z,1.53
2022-11-09T01:21:34.315Z,1.80
2022-11-09T01:22:35.922Z,1.50
2022-11-09T01:23:38.419Z,1.55
2022-11-09T01:24:40.059Z,2.10
2022-11-09T01:25:42.188Z,1.50
2022-11-09T01:26:43.790Z,1.50
2022-11-09T01:27:45.388Z,1.70
2022-11-09T01:28:47.408Z,1.77
2022-11-09T01:29:49.029Z,1.60
2022-11-09T01:30:50.650Z,1.65
2022-11-09T01:31:55.062Z,1.90
2022-11-09T01:32:56.657Z,1.50
2022-11-09T01:33:58.283Z,1.52
2022-11-09T01:34:59.887Z,1.65
2022-11-09T01:36:05.889Z,1.45
2022-11-09T01:37:07.555Z,1.90
2022-11-09T01:38:09.813Z,1.65
2022-11-09T01:39:11.639Z,1.37
2022-11-09T01:40:13.654Z,1.80
2022-11-09T01:41:19.020Z,1.45
2022-11-09T01:42:25.541Z,1.70
2022-11-09T01:43:27.336Z,1.58
2022-11-09T01:44:29.603Z,1.50
2022-11-09T01:45:31.773Z,1.57
2022-11-09T01:46:53.434Z,1.40
2022-11-09T01:47:59.395Z,1.70
2022-11-09T01:49:05.442Z,1.40
2022-11-09T01:50:11.794Z,1.90
2022-11-09T01:51:36.784Z,1.70
2022-11-09T01:52:44.578Z,1.70
2022-11-09T01:53:51.210Z,1.60
2022-11-09T01:54:58.273Z,1.70
2022-11-09T01:56:04.839Z,1.50
2022-11-09T01:57:20.426Z,1.90
2022-11-09T01:58:32.190Z,1.67
2022-11-09T01:59:38.605Z,1.35
2022-11-09T02:00:43.192Z,1.57
2022-11-09T02:01:46.798Z,1.50
2022-11-09T02:02:54.635Z,1.58
2022-11-09T02:04:09.088Z,1.70
2022-11-09T02:05:14.851Z,1.70
2022-11-09T02:06:19.101Z,1.57
2022-11-09T02:07:22.216Z,1.33
2022-11-09T02:08:26.568Z,1.47
2022-11-09T02:09:37.629Z,1.25
2022-11-09T02:10:57.480Z,1.38
2022-11-09T02:11:59.330Z,1.65
2022-11-09T02:13:02.643Z,1.70
2022-11-09T02:14:05.586Z,2.13
2022-11-09T02:15:10.159Z,1.85
2022-11-09T02:16:13.786Z,1.70
2022-11-09T02:17:15.659Z,1.90
2022-11-09T02:18:17.914Z,1.63
2022-11-09T02:19:19.514Z,1.70
2022-11-09T02:20:22.610Z,1.10
2022-11-09T02:21:26.365Z,1.48
2022-11-09T02:22:27.996Z,1.70
2022-11-09T02:23:30.030Z,1.60
2022-11-09T02:24:33.718Z,1.73
2022-11-09T02:25:35.621Z,1.65
2022-11-09T02:26:48.438Z,1.90
2022-11-09T02:27:50.858Z,2.10
2022-11-09T02:28:55.530Z,1.95
2022-11-09T02:29:58.730Z,1.73
2022-11-09T02:31:01.046Z,1.80
2022-11-09T02:32:11.445Z,1.80
2022-11-09T02:33:13.014Z,2.05
2022-11-09T02:34:17.804Z,1.95
2022-11-09T02:35:19.492Z,1.80
2022-11-09T02:36:23.565Z,1.58
2022-11-09T02:37:51.102Z,1.75
2022-11-09T02:38:54.500Z,1.30
2022-11-09T02:39:58.613Z,1.73
2022-11-09T02:41:00.223Z,1.45
2022-11-09T02:42:19.873Z,1.83
2022-11-09T02:43:23.346Z,1.50
2022-11-09T02:44:26.229Z,1.50
2022-11-09T02:45:27.863Z,1.63
2022-11-09T02:46:34.970Z,1.77
2022-11-09T02:47:36.666Z,1.60
2022-11-09T02:48:38.372Z,2.20
2022-11-09T02:49:40.026Z,1.52
2022-11-09T02:50:41.716Z,1.80
2022-11-09T02:51:43.343Z,1.45
2022-11-09T02:52:44.967Z,1.50
2022-11-09T02:53:46.604Z,1.75
2022-11-09T02:54:48.216Z,1.63
2022-11-09T02:55:49.841Z,1.55
2022-11-09T02:56:51.439Z,1.90
2022-11-09T02:57:53.069Z,1.90
2022-11-09T02:58:54.867Z,1.65
2022-11-09T02:59:56.491Z,2.17
2022-11-09T03:00:58.150Z,1.90
2022-11-09T03:01:59.880Z,2.08
2022-11-09T03:03:01.586Z,1.98
2022-11-09T03:04:03.200Z,1.70
2022-11-09T03:05:05.136Z,1.77
2022-11-09T03:06:06.808Z,1.90
2022-11-09T03:07:08.838Z,1.58
2022-11-09T03:08:10.678Z,1.77
2022-11-09T03:09:12.803Z,1.70
2022-11-09T03:10:14.659Z,1.80
2022-11-09T03:11:16.299Z,2.20
2022-11-09T03:12:30.259Z,2.25
2022-11-09T03:13:33.160Z,1.80
2022-11-09T03:14:34.767Z,2.00
2022-11-09T03:15:38.016Z,1.92
2022-11-09T03:16:39.979Z,1.50
2022-11-09T03:17:41.634Z,1.98
2022-11-09T03:18:43.226Z,1.70
2022-11-09T03:19:45.251Z,1.65
2022-11-09T03:20:46.842Z,1.92
2022-11-09T03:21:48.454Z,1.98
2022-11-09T03:22:50.085Z,1.88
2022-11-09T03:23:51.811Z,2.30
2022-11-09T03:24:53.427Z,1.95
2022-11-09T03:25:55.019Z,1.90
2022-11-09T03:26:56.669Z,1.55
2022-11-09T03:28:00.572Z,2.13
2022-11-09T03:29:02.151Z,1.70
2022-11-09T03:30:04.642Z,1.67
2022-11-09T03:31:06.680Z,1.42
2022-11-09T03:32:08.617Z,1.70
2022-11-09T03:33:10.423Z,1.55
2022-11-09T03:34:12.090Z,1.90
2022-11-09T03:35:13.871Z,1.95
2022-11-09T03:36:16.054Z,1.77
2022-11-09T03:37:18.273Z,1.65
2022-11-09T03:38:19.997Z,1.83
2022-11-09T03:39:21.657Z,1.70
2022-11-09T03:40:23.242Z,1.83
2022-11-09T03:41:24.827Z,1.50
2022-11-09T03:42:26.437Z,1.90
2022-11-09T03:43:29.195Z,3.40
2022-11-09T03:44:30.784Z,2.30
2022-11-09T03:45:32.411Z,2.20
2022-11-09T03:46:34.058Z,1.90
2022-11-09T03:47:35.668Z,1.60
2022-11-09T03:48:37.277Z,1.70
2022-11-09T03:49:38.867Z,1.60
2022-11-09T03:50:40.758Z,1.67
2022-11-09T03:51:42.402Z,1.60
2022-11-09T03:52:45.856Z,1.70
2022-11-09T03:53:47.476Z,1.58
2022-11-09T03:54:49.065Z,1.50
2022-11-09T03:55:50.686Z,1.90
2022-11-09T03:56:52.255Z,1.88
2022-11-09T03:57:54.500Z,1.80
2022-11-09T03:58:56.080Z,1.90
2022-11-09T03:59:57.829Z,2.30
2022-11-09T04:00:59.453Z,1.73
2022-11-09T04:02:01.077Z,2.35
2022-11-09T04:03:02.806Z,2.00
2022-11-09T04:04:04.609Z,1.90
2022-11-09T04:05:06.843Z,1.75
2022-11-09T04:06:08.637Z,1.67
2022-11-09T04:07:11.080Z,1.83
2022-11-09T04:08:12.794Z,1.73
2022-11-09T04:09:14.413Z,2.25
2022-11-09T04:10:16.195Z,2.33
2022-11-09T04:11:17.844Z,2.00
2022-11-09T04:12:19.511Z,2.10
2022-11-09T04:13:21.625Z,1.95
2022-11-09T04:14:23.684Z,2.28
2022-11-09T04:15:25.352Z,1.70
2022-11-09T04:16:27.022Z,1.75
2022-11-09T04:17:28.623Z,2.00
2022-11-09T04:18:30.227Z,1.55
2022-11-09T04:19:31.900Z,1.60
2022-11-09T04:20:33.501Z,1.50
2022-11-09T04:21:35.174Z,1.67
2022-11-09T04:22:37.358Z,1.90
2022-11-09T04:23:39.056Z,1.90
2022-11-09T04:24:40.649Z,1.73
2022-11-09T04:25:42.679Z,1.55
2022-11-09T04:26:44.257Z,2.10
2022-11-09T04:27:45.826Z,1.80
2022-11-09T04:28:47.493Z,1.88
2022-11-09T04:29:49.098Z,1.73
2022-11-09T04:30:50.673Z,1.55
2022-11-09T04:31:52.360Z,2.00
2022-11-09T04:32:58.050Z,1.90
2022-11-09T04:34:00.165Z,1.65
2022-11-09T04:35:01.774Z,1.42
2022-11-09T04:36:04.885Z,1.73
2022-11-09T04:37:06.724Z,2.00
2022-11-09T04:38:11.886Z,1.52
2022-11-09T04:39:13.581Z,1.67
2022-11-09T04:40:15.547Z,2.00
2022-11-09T04:41:17.284Z,2.00
2022-11-09T04:42:18.925Z,2.00
2022-11-09T04:43:20.850Z,1.70
2022-11-09T04:44:22.787Z,1.83
2022-11-09T04:45:24.382Z,1.35
2022-11-09T04:46:27.113Z,1.70
2022-11-09T04:47:28.694Z,1.80
2022-11-09T04:48:33.386Z,1.95
2022-11-09T04:49:34.986Z,1.92
2022-11-09T04:50:36.633Z,1.50
2022-11-09T04:51:38.212Z,1.85
2022-11-09T04:52:39.876Z,2.08
2022-11-09T04:53:41.538Z,1.75
2022-11-09T04:54:43.150Z,1.95
2022-11-09T04:55:44.765Z,1.90
2022-11-09T04:56:46.369Z,1.55
2022-11-09T04:57:47.996Z,1.58
2022-11-09T04:58:49.583Z,1.60
2022-11-09T04:59:51.203Z,2.28
2022-11-09T05:00:53.844Z,1.77
2022-11-09T05:01:55.486Z,1.20
2022-11-09T05:03:01.055Z,2.00
2022-11-09T05:04:02.770Z,1.40
2022-11-09T05:05:04.766Z,1.50
2022-11-09T05:06:25.697Z,2.35
2022-11-09T05:07:27.505Z,1.40
2022-11-09T05:08:29.186Z,1.50
2022-11-09T05:09:30.795Z,1.80
2022-11-09T05:10:33.168Z,1.65
2022-11-09T05:11:36.110Z,1.40
2022-11-09T05:12:39.460Z,1.45
2022-11-09T05:13:43.925Z,1.63
2022-11-09T05:14:45.487Z,1.30
2022-11-09T05:15:47.132Z,1.38
2022-11-09T05:16:48.809Z,1.67
2022-11-09T05:17:50.464Z,1.58
2022-11-09T05:18:52.131Z,1.52
2022-11-09T05:19:56.026Z,1.50
2022-11-09T05:21:01.814Z,1.60
2022-11-09T05:22:23.511Z,1.30
2022-11-09T05:23:43.713Z,1.30
2022-11-09T05:24:45.425Z,1.65
2022-11-09T05:25:47.382Z,1.45
2022-11-09T05:26:49.105Z,1.77
2022-11-09T05:27:51.255Z,1.20
2022-11-09T05:28:53.128Z,1.40
2022-11-09T05:29:54.711Z,1.30
2022-11-09T05:30:56.366Z,1.50
2022-11-09T05:31:58.064Z,1.10
2022-11-09T05:32:59.699Z,1.50
2022-11-09T05:34:01.380Z,1.55
2022-11-09T05:35:02.952Z,1.50
2022-11-09T05:36:04.811Z,1.40
2022-11-09T05:37:06.648Z,1.55
2022-11-09T05:38:08.246Z,1.60
2022-11-09T05:39:09.836Z,1.85
2022-11-09T05:40:11.625Z,1.55
2022-11-09T05:41:13.436Z,1.63
2022-11-09T05:42:15.154Z,1.42
2022-11-09T05:43:17.526Z,1.33
2022-11-09T05:44:19.367Z,1.50
2022-11-09T05:45:41.459Z,1.20
2022-11-09T05:46:42.851Z,1.45
2022-11-09T05:47:45.295Z,1.55
2022-11-09T05:48:47.045Z,1.60
2022-11-09T05:49:48.762Z,1.40
2022-11-09T05:50:50.379Z,1.60
2022-11-09T05:51:52.002Z,1.58
2022-11-09T05:52:54.473Z,1.70
2022-11-09T05:53:56.111Z,1.45
2022-11-09T05:54:57.826Z,1.58
2022-11-09T05:56:05.326Z,1.38
2022-11-09T05:57:06.984Z,1.27
2022-11-09T05:58:09.585Z,1.17
2022-11-09T05:59:11.261Z,1.20
2022-11-09T06:00:13.823Z,1.63
2022-11-09T06:01:18.596Z,2.17
2022-11-09T06:02:20.706Z,2.45
2022-11-09T06:03:22.792Z,1.35
2022-11-09T06:04:24.616Z,1.63
2022-11-09T06:05:26.197Z,1.35
2022-11-09T06:06:27.868Z,1.15
2022-11-09T06:07:29.511Z,1.40
2022-11-09T06:08:31.646Z,1.33
2022-11-09T06:09:33.284Z,1.30
2022-11-09T06:10:35.272Z,1.33
2022-11-09T06:11:36.946Z,1.40
2022-11-09T06:12:38.531Z,1.20
2022-11-09T06:13:40.160Z,1.35
2022-11-09T06:14:41.743Z,1.30
2022-11-09T06:15:43.353Z,1.05
2022-11-09T06:16:44.994Z,1.23
2022-11-09T06:17:52.515Z,1.20
2022-11-09T06:18:54.998Z,1.20
2022-11-09T06:19:56.593Z,1.40
2022-11-09T06:21:00.287Z,0.98
2022-11-09T06:22:01.884Z,1.27
2022-11-09T06:23:04.459Z,1.40
2022-11-09T06:24:06.599Z,1.83
2022-11-09T06:25:08.519Z,1.27
2022-11-09T06:26:11.419Z,1.10
2022-11-09T06:27:13.012Z,1.33
2022-11-09T06:28:14.599Z,1.50
2022-11-09T06:29:16.272Z,1.23
2022-11-09T06:30:17.942Z,1.70
2022-11-09T06:31:20.628Z,1.10
2022-11-09T06:32:22.313Z,1.38
2022-11-09T06:33:23.891Z,1.30
2022-11-09T06:34:25.634Z,1.30
2022-11-09T06:35:27.310Z,1.00
2022-11-09T06:36:28.982Z,1.13
2022-11-09T06:37:30.602Z,1.30
2022-11-09T06:38:32.349Z,1.05
2022-11-09T06:39:34.153Z,1.90
2022-11-09T06:40:36.986Z,1.60
2022-11-09T06:41:41.143Z,1.30
2022-11-09T06:42:44.996Z,1.30
2022-11-09T06:43:46.686Z,1.67
2022-11-09T06:44:48.292Z,2.10
2022-11-09T06:45:50.549Z,1.42
2022-11-09T06:46:52.171Z,1.50
2022-11-09T06:48:02.110Z,1.10
2022-11-09T06:49:03.710Z,1.58
2022-11-09T06:50:05.798Z,1.50
2022-11-09T06:51:07.565Z,1.23
2022-11-09T06:52:09.153Z,1.10
2022-11-09T06:53:13.158Z,1.73
2022-11-09T06:54:14.830Z,1.35
2022-11-09T06:55:16.592Z,1.52
2022-11-09T06:56:18.230Z,1.55
2022-11-09T06:57:19.869Z,1.27
2022-11-09T06:58:21.950Z,1.67
2022-11-09T06:59:23.599Z,1.35
2022-11-09T07:00:26.891Z,1.52
2022-11-09T07:01:29.717Z,1.20
2022-11-09T07:02:31.384Z,1.17
2022-11-09T07:03:33.006Z,1.60
2022-11-09T07:04:34.681Z,1.40
2022-11-09T07:05:39.839Z,1.27
2022-11-09T07:06:42.551Z,1.30
2022-11-09T07:07:44.854Z,1.13
2022-11-09T07:08:46.493Z,1.48
2022-11-09T07:09:48.110Z,1.25
2022-11-09T07:10:49.810Z,1.20
2022-11-09T07:11:51.402Z,1.13
2022-11-09T07:12:53.016Z,1.15
2022-11-09T07:13:57.443Z,1.35
2022-11-09T07:14:59.413Z,1.05
2022-11-09T07:16:01.170Z,1.05
2022-11-09T07:17:02.840Z,1.20
2022-11-09T07:18:06.683Z,1.20
2022-11-09T07:19:08.269Z,1.33
2022-11-09T07:20:11.167Z,1.25
2022-11-09T07:21:14.461Z,1.30
2022-11-09T07:22:16.291Z,1.10
2022-11-09T07:23:18.691Z,1.70
2022-11-09T07:24:20.603Z,1.33
2022-11-09T07:25:22.880Z,1.20
2022-11-09T07:26:24.531Z,1.20
2022-11-09T07:27:28.148Z,1.10
2022-11-09T07:28:30.247Z,1.08
2022-11-09T07:29:31.834Z,1.25
2022-11-09T07:30:33.553Z,1.70
2022-11-09T07:31:35.234Z,1.27
2022-11-09T07:34:04.674Z,1.10
2022-11-09T07:35:07.636Z,1.10
2022-11-09T07:36:09.484Z,1.20
2022-11-09T07:37:11.106Z,1.30
2022-11-09T07:38:15.655Z,0.90
2022-11-09T07:39:17.326Z,1.10
2022-11-09T07:40:19.901Z,1.35
2022-11-09T07:41:21.524Z,1.10
2022-11-09T07:42:23.835Z,1.20
2022-11-09T07:43:25.448Z,1.20
2022-11-09T07:44:27.081Z,1.10
2022-11-09T07:45:29.882Z,0.90
2022-11-09T07:46:31.631Z,1.38
2022-11-09T07:47:33.248Z,1.13
2022-11-09T07:48:34.940Z,1.17
2022-11-09T07:49:36.576Z,1.02
2022-11-09T07:50:39.722Z,1.10
2022-11-09T07:51:42.301Z,1.30
2022-11-09T07:52:44.020Z,1.00
2022-11-09T07:53:45.648Z,1.08
2022-11-09T07:54:51.961Z,1.10
2022-11-09T07:55:59.211Z,0.70
2022-11-09T07:57:00.792Z,1.15
2022-11-09T07:58:14.898Z,1.30
2022-11-09T07:59:16.580Z,1.10
2022-11-09T08:00:23.423Z,0.80
2022-11-09T08:01:25.954Z,1.10
2022-11-09T08:02:27.620Z,1.00
2022-11-09T08:03:29.306Z,1.38
2022-11-09T08:04:30.888Z,1.20
2022-11-09T08:05:33.166Z,1.10
2022-11-09T08:06:34.988Z,1.13
2022-11-09T08:07:37.339Z,1.20
2022-11-09T08:08:39.456Z,1.10
2022-11-09T08:09:41.040Z,0.90
2022-11-09T08:10:44.130Z,1.07
2022-11-09T08:11:45.760Z,0.90
2022-11-09T08:13:00.830Z,0.90
2022-11-09T08:14:02.574Z,0.93
2022-11-09T08:15:05.374Z,1.00
2022-11-09T08:16:07.269Z,1.10
2022-11-09T08:17:08.863Z,0.85
2022-11-09T08:18:16.924Z,0.85
2022-11-09T08:19:18.648Z,0.88
2022-11-09T08:20:20.949Z,0.90
2022-11-09T08:21:22.659Z,0.77
2022-11-09T08:22:24.265Z,0.82
2022-11-09T08:23:25.872Z,0.90
2022-11-09T08:24:27.564Z,0.97
2022-11-09T08:25:29.586Z,0.80
2022-11-09T08:26:31.795Z,0.90
2022-11-09T08:27:39.920Z,0.80
2022-11-09T08:28:41.562Z,0.90
2022-11-09T08:29:43.212Z,0.93
2022-11-09T08:30:45.528Z,0.90
2022-11-09T08:31:50.931Z,0.90
2022-11-09T08:32:52.975Z,0.70
2022-11-09T08:33:54.594Z,0.60
2022-11-09T08:34:56.225Z,0.70
2022-11-09T08:35:57.911Z,0.77
2022-11-09T08:37:00.603Z,0.88
2022-11-09T08:38:04.800Z,0.70
2022-11-09T08:39:06.506Z,0.80
2022-11-09T08:40:09.193Z,0.70
2022-11-09T08:41:13.600Z,0.70
2022-11-09T08:42:15.628Z,0.70
2022-11-09T08:43:17.219Z,0.70
2022-11-09T08:44:18.856Z,0.77
2022-11-09T08:45:21.491Z,0.80
2022-11-09T08:46:23.099Z,1.23
2022-11-09T08:47:24.756Z,0.80
2022-11-09T08:48:26.544Z,0.77
2022-11-09T08:49:28.124Z,0.60
2022-11-09T08:51:43.575Z,0.80
2022-11-09T08:52:45.182Z,0.70
2022-11-09T08:53:46.818Z,0.80
2022-11-09T08:54:48.522Z,0.90
2022-11-09T08:55:50.681Z,0.77
2022-11-09T08:56:55.895Z,0.70
2022-11-09T08:57:59.499Z,0.80
2022-11-09T08:59:01.135Z,1.00
2022-11-09T09:00:04.128Z,0.77
2022-11-09T09:01:15.334Z,0.80
2022-11-09T09:02:18.658Z,0.80
2022-11-09T09:03:20.352Z,0.77
2022-11-09T09:04:21.960Z,0.90
2022-11-09T09:05:23.980Z,0.77
2022-11-09T09:06:30.663Z,0.90
2022-11-09T09:07:32.915Z,0.90
2022-11-09T09:08:34.811Z,0.80
2022-11-09T09:09:39.723Z,0.80
2022-11-09T09:10:42.553Z,1.03
2022-11-09T09:11:44.180Z,0.90
2022-11-09T09:12:45.950Z,0.70
2022-11-09T09:13:47.560Z,0.80
2022-11-09T09:14:49.952Z,0.70
2022-11-09T09:15:51.596Z,0.83
2022-11-09T09:16:53.273Z,0.70
2022-11-09T09:17:54.879Z,1.00
2022-11-09T09:18:56.782Z,1.00
2022-11-09T09:19:58.387Z,0.80
2022-11-09T09:20:59.991Z,0.90
2022-11-09T09:22:01.728Z,1.00
2022-11-09T09:23:03.406Z,0.88
2022-11-09T09:24:05.323Z,1.00
2022-11-09T09:25:07.590Z,0.80
2022-11-09T09:26:09.495Z,0.85
2022-11-09T09:27:11.148Z,0.80
2022-11-09T09:28:12.761Z,0.80
2022-11-09T09:29:14.752Z,1.00
2022-11-09T09:30:16.639Z,1.00
2022-11-09T09:31:19.159Z,1.00
2022-11-09T09:32:20.894Z,0.80
2022-11-09T09:33:22.504Z,0.80
2022-11-09T09:34:24.124Z,1.30
2022-11-09T09:35:26.931Z,0.90
2022-11-09T09:36:28.513Z,0.90
2022-11-09T09:37:30.162Z,0.93
2022-11-09T09:38:31.808Z,0.80
2022-11-09T09:39:33.409Z,1.17
2022-11-09T09:40:42.088Z,0.70
2022-11-09T09:42:08.246Z,1.00
2022-11-09T09:43:22.191Z,1.10
2022-11-09T09:44:37.068Z,1.30
2022-11-09T09:45:48.938Z,1.98
2022-11-09T09:47:11.810Z,1.10
2022-11-09T09:48:38.100Z,1.10
2022-11-09T09:49:47.520Z,0.90
2022-11-09T09:50:53.450Z,0.95
2022-11-09T09:52:35.247Z,1.03
2022-11-09T09:53:41.086Z,0.80
2022-11-09T09:54:52.140Z,0.87
2022-11-09T09:56:03.849Z,1.17
2022-11-09T09:57:16.788Z,1.20
2022-11-09T09:58:26.755Z,0.77
2022-11-09T09:59:48.122Z,0.90
2022-11-09T10:00:54.950Z,0.87
2022-11-09T10:01:58.415Z,0.90
2022-11-09T10:03:01.034Z,0.97
2022-11-09T10:04:02.785Z,1.13
2022-11-09T10:05:12.020Z,1.27
2022-11-09T10:06:26.566Z,0.97
2022-11-09T10:07:40.647Z,0.80
2022-11-09T10:08:51.370Z,1.60
2022-11-09T10:10:20.975Z,0.87
2022-11-09T10:11:27.414Z,0.70
2022-11-09T10:13:09.013Z,0.93
2022-11-09T10:14:36.459Z,1.00
2022-11-09T10:16:13.448Z,0.90
2022-11-09T10:17:28.389Z,0.80
2022-11-09T10:18:52.988Z,1.00
2022-11-09T10:20:08.907Z,1.07
2022-11-09T10:21:39.174Z,1.00
2022-11-09T10:23:09.769Z,0.93
2022-11-09T10:24:23.083Z,1.23
2022-11-09T10:25:50.330Z,1.27
2022-11-09T10:26:56.919Z,1.00
2022-11-09T10:28:02.544Z,0.90
2022-11-09T10:29:23.772Z,1.47
2022-11-09T10:30:27.625Z,0.90
2022-11-09T10:31:34.189Z,1.20
2022-11-09T10:32:36.178Z,1.30
2022-11-09T10:33:37.973Z,1.20
2022-11-09T10:34:42.679Z,0.90
2022-11-09T10:35:46.920Z,0.90
2022-11-09T10:37:13.541Z,1.30
2022-11-09T10:38:20.890Z,0.97
2022-11-09T10:39:26.049Z,1.20
2022-11-09T10:40:35.178Z,0.97
2022-11-09T10:41:44.158Z,0.90
2022-11-09T10:42:55.111Z,0.90
2022-11-09T10:43:56.801Z,1.20
2022-11-09T10:45:02.017Z,1.00
2022-11-09T10:46:06.827Z,0.90
2022-11-09T10:47:16.127Z,0.80
2022-11-09T10:48:31.935Z,0.90
2022-11-09T10:49:34.487Z,1.77
2022-11-09T10:50:54.198Z,1.70
2022-11-09T10:51:55.812Z,1.70
2022-11-09T10:53:23.763Z,1.13
2022-11-09T10:54:28.427Z,1.30
2022-11-09T10:55:30.572Z,1.07
2022-11-09T10:57:04.996Z,1.00
2022-11-09T10:58:23.295Z,1.10
2022-11-09T10:59:39.610Z,1.00
2022-11-09T11:01:02.116Z,1.30
2022-11-09T11:02:26.524Z,1.47
2022-11-09T11:03:29.444Z,0.97
2022-11-09T11:04:31.129Z,0.90
2022-11-09T11:05:34.040Z,1.30
2022-11-09T11:06:35.712Z,0.97
2022-11-09T11:07:37.339Z,0.97
2022-11-09T11:08:41.933Z,1.23
2022-11-09T11:09:43.549Z,0.87
2022-11-09T11:10:45.197Z,1.00
2022-11-09T11:11:46.973Z,0.93
2022-11-09T11:12:53.429Z,0.93
2022-11-09T11:14:23.392Z,1.30
2022-11-09T11:15:37.867Z,1.20
2022-11-09T11:16:40.391Z,1.30
2022-11-09T11:17:42.637Z,1.10
2022-11-09T11:18:47.352Z,1.27
2022-11-09T11:19:48.936Z,1.50
2022-11-09T11:21:18.639Z,1.30
2022-11-09T11:22:23.943Z,0.97
2022-11-09T11:23:26.696Z,1.20
2022-11-09T11:25:00.858Z,1.17
2022-11-09T11:26:22.694Z,1.40
2022-11-09T11:27:39.480Z,1.33
2022-11-09T11:28:49.602Z,1.30
2022-11-09T11:30:10.800Z,1.03
2022-11-09T11:31:15.770Z,1.13
2022-11-09T11:32:19.463Z,1.20
2022-11-09T11:33:22.421Z,1.10
2022-11-09T11:34:53.470Z,1.10
2022-11-09T11:35:58.198Z,1.50
2022-11-09T11:37:35.259Z,1.00
2022-11-09T11:38:43.396Z,1.10
2022-11-09T11:39:58.678Z,1.30
2022-11-09T11:41:29.173Z,1.20
2022-11-09T11:42:42.722Z,1.30
2022-11-09T11:44:08.235Z,0.80
2022-11-09T11:45:41.668Z,1.03
2022-11-09T11:46:56.331Z,1.27
2022-11-09T11:48:29.497Z,1.20
2022-11-09T11:49:33.884Z,1.20
2022-11-09T11:50:53.232Z,1.00
2022-11-09T11:52:06.657Z,1.07
2022-11-09T11:53:23.550Z,1.03
2022-11-09T11:54:50.535Z,1.10
2022-11-09T11:56:11.328Z,1.10
2022-11-09T11:57:40.008Z,1.07
2022-11-09T11:59:19.569Z,1.07
2022-11-09T12:00:21.635Z,1.10
2022-11-09T12:01:51.881Z,1.13
2022-11-09T12:03:32.531Z,0.90
2022-11-09T12:05:15.456Z,1.33
2022-11-09T12:06:32.142Z,1.53
2022-11-09T12:07:41.851Z,1.00
2022-11-09T12:09:06.723Z,1.20
2022-11-09T12:10:17.485Z,1.03
2022-11-09T12:11:41.282Z,1.20
2022-11-09T12:13:11.875Z,1.53
2022-11-09T12:14:29.805Z,1.20
2022-11-09T12:16:16.208Z,1.30
2022-11-09T12:17:51.234Z,1.10
2022-11-09T12:19:17.559Z,1.20
2022-11-09T12:20:36.361Z,1.00
2022-11-09T12:21:58.894Z,1.30
2022-11-09T12:23:19.642Z,1.70
2022-11-09T12:24:26.771Z,1.20
2022-11-09T12:25:48.628Z,1.20
2022-11-09T12:27:38.675Z,1.30
2022-11-09T12:29:07.158Z,1.23
2022-11-09T12:30:39.912Z,2.00
2022-11-09T12:31:47.053Z,1.37
2022-11-09T12:32:56.937Z,1.03
2022-11-09T12:34:18.399Z,1.33
2022-11-09T12:35:22.526Z,1.23
2022-11-09T12:36:42.260Z,1.07
2022-11-09T12:38:07.654Z,1.47
2022-11-09T12:39:40.815Z,1.10
2022-11-09T12:41:02.167Z,1.10
2022-11-09T12:42:09.261Z,0.90
2022-11-09T12:43:39.635Z,1.00
2022-11-09T12:44:59.613Z,1.03
2022-11-09T12:46:05.191Z,1.23
2022-11-09T12:47:16.153Z,1.10
2022-11-09T12:48:34.601Z,1.00
2022-11-09T12:49:41.892Z,1.07
2022-11-09T12:50:44.167Z,1.20
2022-11-09T12:51:45.922Z,1.00
2022-11-09T12:52:52.192Z,1.00
2022-11-09T12:53:56.510Z,1.20
2022-11-09T12:55:01.111Z,1.10
2022-11-09T12:56:17.467Z,1.00
2022-11-09T12:57:28.690Z,1.23
2022-11-09T12:58:36.617Z,1.03
2022-11-09T12:59:51.170Z,1.10
2022-11-09T13:00:56.433Z,1.17
2022-11-09T13:02:00.355Z,1.87
2022-11-09T13:03:05.456Z,1.30
2022-11-09T13:04:07.218Z,1.20
2022-11-09T13:05:33.152Z,1.40
2022-11-09T13:06:36.672Z,1.10
2022-11-09T13:07:51.733Z,1.10
2022-11-09T13:09:23.836Z,0.80
2022-11-09T13:10:25.765Z,1.40
2022-11-09T13:11:40.727Z,1.20
2022-11-09T13:12:42.973Z,1.17
2022-11-09T13:13:45.147Z,1.27
2022-11-09T13:14:47.444Z,1.30
2022-11-09T13:16:12.373Z,1.20
2022-11-09T13:17:25.916Z,0.93
2022-11-09T13:18:51.176Z,0.90
2022-11-09T13:19:55.183Z,1.20
2022-11-09T13:21:17.106Z,1.43
2022-11-09T13:22:22.907Z,1.10
2022-11-09T13:23:47.781Z,1.10
2022-11-09T13:25:00.036Z,1.00
2022-11-09T13:26:02.474Z,1.40
2022-11-09T13:27:04.433Z,0.90
2022-11-09T13:28:28.788Z,1.30
2022-11-09T13:29:51.096Z,1.10
2022-11-09T13:31:00.313Z,1.73
2022-11-09T13:32:07.700Z,1.20
2022-11-09T13:33:15.360Z,1.10
2022-11-09T13:34:48.224Z,0.93
2022-11-09T13:35:49.783Z,1.60
2022-11-09T13:37:28.999Z,0.90
2022-11-09T13:38:31.923Z,1.27
2022-11-09T13:39:38.131Z,1.17
2022-11-09T13:40:41.657Z,0.90
2022-11-09T13:41:43.781Z,0.97
2022-11-09T13:42:59.934Z,1.10
2022-11-09T13:44:21.583Z,1.30
2022-11-09T13:45:33.247Z,1.10
2022-11-09T13:46:39.049Z,1.50
2022-11-09T13:47:50.346Z,1.23
2022-11-09T13:48:56.048Z,1.13
2022-11-09T13:49:57.960Z,1.00
2022-11-09T13:51:05.840Z,1.00
2022-11-09T13:52:42.434Z,0.87
2022-11-09T13:54:26.403Z,1.07
2022-11-09T13:55:36.885Z,0.90
2022-11-09T13:56:40.747Z,0.93
2022-11-09T13:57:44.752Z,1.10
2022-11-09T13:58:50.775Z,1.17
2022-11-09T13:59:52.871Z,1.00
2022-11-09T14:00:54.901Z,0.87
2022-11-09T14:01:58.699Z,0.83
2022-11-09T14:03:24.176Z,0.80
2022-11-09T14:04:34.785Z,0.90
2022-11-09T14:05:39.322Z,1.10
2022-11-09T14:06:41.074Z,1.30
2022-11-09T14:07:42.732Z,1.13
2022-11-09T14:08:44.759Z,1.20
2022-11-09T14:09:55.453Z,1.27
2022-11-09T14:11:08.955Z,1.20
2022-11-09T14:12:19.441Z,1.20
2022-11-09T14:14:09.847Z,0.90
2022-11-09T14:15:30.553Z,1.30
2022-11-09T14:16:52.455Z,0.90
2022-11-09T14:18:02.718Z,0.90
2022-11-09T14:19:35.979Z,0.80
2022-11-09T14:20:49.574Z,1.33
2022-11-09T14:21:52.521Z,1.20
2022-11-09T14:22:54.282Z,1.17
2022-11-09T14:24:02.505Z,1.10
2022-11-09T14:25:15.360Z,1.27
2022-11-09T14:26:23.520Z,1.27
2022-11-09T14:27:25.366Z,1.77
2022-11-09T14:28:32.727Z,1.20
2022-11-09T14:29:35.102Z,1.30
2022-11-09T14:30:44.569Z,1.00
2022-11-09T14:31:46.435Z,1.40
2022-11-09T14:32:54.181Z,1.03
2022-11-09T14:34:06.288Z,1.30
2022-11-09T14:35:12.028Z,0.90
2022-11-09T14:36:13.838Z,1.20
2022-11-09T14:37:16.461Z,1.10
2022-11-09T14:38:44.303Z,1.27
2022-11-09T14:39:53.059Z,1.10
2022-11-09T14:40:56.050Z,1.33
2022-11-09T14:41:57.841Z,1.50
2022-11-09T14:43:20.508Z,1.10
2022-11-09T14:44:35.827Z,1.23
2022-11-09T14:45:37.659Z,1.30